createdAt,value
2019-04-26T08:14:28.300Z,9.0000
2019-04-26T08:14:28.300Z,6.6000
2019-04-26T08:14:30.198Z,7.1000
2019-04-26T08:14:39.223Z,7.1000
2019-04-26T08:14:50.256Z,7.3000
2019-04-26T08:14:59.244Z,4.6000
2019-04-26T08:15:11.299Z,1.9000
2019-04-26T08:15:19.203Z,1.6000
2019-04-26T08:15:30.231Z,1.9000
2019-04-26T08:15:39.235Z,2.1000
2019-04-26T08:15:49.217Z,2.0000
2019-04-26T08:16:00.244Z,1.3000
2019-04-26T08:27:08.754Z,0.5000
2019-04-26T08:27:30.312Z,0.8000
2019-04-26T08:27:39.832Z,1.0000
2019-04-26T08:27:49.295Z,1.7000
2019-04-26T08:28:00.248Z,1.3000
2019-04-26T08:28:09.977Z,1.5000
2019-04-26T08:28:20.293Z,1.3000
2019-04-26T08:28:29.399Z,1.7000
2019-04-26T08:28:40.260Z,2.0000
2019-04-26T08:28:49.291Z,3.7000
2019-04-26T08:29:00.707Z,5.2000
2019-04-26T08:29:10.501Z,4.6000
2019-04-26T08:29:20.236Z,3.0000
2019-04-26T08:29:29.877Z,2.2000
2019-04-26T08:29:50.284Z,3.5000
2019-04-26T08:30:03.447Z,2.9000
2019-04-26T08:30:14.459Z,2.6000
2019-04-26T08:30:19.798Z,2.0000
2019-04-26T08:30:30.268Z,2.5000
2019-04-26T08:30:59.266Z,1.5000
2019-04-26T08:31:10.895Z,1.4000
2019-04-26T08:31:21.235Z,1.4000
2019-04-26T08:31:30.254Z,1.4000
2019-04-26T08:31:39.301Z,2.2000
2019-04-26T08:31:59.306Z,3.1000
2019-04-26T08:32:19.439Z,1.1000
2019-04-26T08:32:32.147Z,2.0000
2019-04-26T08:32:40.258Z,3.5000
2019-04-26T08:32:49.242Z,5.2000
2019-04-26T08:33:12.839Z,3.8000
2019-04-26T08:33:29.262Z,2.2000
2019-04-26T08:34:00.386Z,2.5000
2019-04-26T08:34:10.122Z,1.8000
2019-04-26T08:34:21.135Z,1.4000
2019-04-26T08:34:33.642Z,1.9000
2019-04-26T08:34:49.351Z,3.3000
2019-04-26T08:35:16.075Z,4.4000
2019-04-26T08:35:40.107Z,12.9000
2019-04-26T08:35:59.388Z,12.9000
2019-04-26T08:36:10.571Z,8.7000
2019-04-26T08:36:40.081Z,1.6000
2019-04-26T08:36:50.367Z,1.5000
2019-04-26T08:37:01.922Z,1.9000
2019-04-26T08:37:10.486Z,1.7000
2019-04-26T08:37:19.357Z,2.2000
2019-04-26T08:37:39.274Z,1.4000
2019-04-26T08:37:59.248Z,1.3000
2019-04-26T08:38:39.287Z,1.0000
2019-04-26T08:38:52.636Z,1.3000
2019-04-26T08:39:00.273Z,1.4000
2019-04-26T08:39:24.563Z,1.0000
2019-04-26T08:39:44.269Z,0.8000
2019-04-26T08:39:45.098Z,0.7000
2019-04-26T08:39:51.875Z,0.6000
2019-04-26T08:40:00.331Z,0.8000
2019-04-26T08:40:09.259Z,1.1000
2019-04-26T08:40:26.392Z,1.2000
2019-04-26T08:40:31.339Z,1.0000
2019-04-26T08:40:40.304Z,0.7000
2019-04-26T08:40:49.285Z,0.8000
2019-04-26T08:41:04.846Z,2.2000
2019-04-26T08:41:11.581Z,2.1000
2019-04-26T08:41:19.278Z,2.4000
2019-04-26T08:41:30.248Z,1.5000
2019-04-26T08:41:40.192Z,2.4000
2019-04-26T08:41:59.270Z,1.7000
2019-04-26T08:42:18.229Z,1.6000
2019-04-26T08:42:23.237Z,2.1000
2019-04-26T08:42:30.257Z,2.1000
2019-04-26T08:42:39.258Z,1.4000
2019-04-26T08:42:53.308Z,1.4000
2019-04-26T08:42:59.215Z,1.5000
2019-04-26T08:43:20.168Z,2.7000
2019-04-26T08:43:31.916Z,2.2000
2019-04-26T08:43:40.269Z,2.3000
2019-04-26T08:43:51.296Z,2.2000
2019-04-26T08:44:03.631Z,2.2000
2019-04-26T08:44:09.733Z,2.9000
2019-04-26T08:44:34.553Z,3.2000
2019-04-26T08:44:40.253Z,2.8000
2019-04-26T08:44:51.092Z,1.9000
2019-04-26T08:45:00.251Z,1.4000
2019-04-26T08:45:12.474Z,1.1000
2019-04-26T08:45:20.236Z,1.0000
2019-04-26T08:45:29.238Z,0.7000
2019-04-26T08:46:01.705Z,0.8000
2019-04-26T08:46:12.580Z,2.5000
2019-04-26T08:46:21.295Z,2.3000
2019-04-26T08:46:32.209Z,2.3000
2019-04-26T08:46:39.449Z,0.8000
2019-04-26T08:46:49.515Z,0.9000
2019-04-26T08:47:00.299Z,1.0000
2019-04-26T08:47:14.222Z,0.7000
2019-04-26T08:47:24.517Z,0.6000
2019-04-26T08:47:30.265Z,0.5000
2019-04-26T08:47:40.990Z,2.1000
2019-04-26T08:47:53.409Z,2.6000
2019-04-26T08:47:59.423Z,2.5000
2019-04-26T08:48:10.447Z,1.1000
2019-04-26T08:48:22.393Z,1.0000
2019-04-26T08:48:41.516Z,4.0000
2019-04-26T08:48:51.949Z,4.0000
2019-04-26T08:49:02.185Z,1.8000
2019-04-26T08:49:09.642Z,2.0000
2019-04-26T08:49:20.272Z,2.8000
2019-04-26T08:49:29.358Z,2.8000
2019-04-26T08:49:49.296Z,2.4000
2019-04-26T08:49:59.285Z,2.4000
2019-04-26T08:50:12.218Z,2.5000
2019-04-26T08:50:20.756Z,4.8000
2019-04-26T08:50:29.290Z,4.9000
2019-04-26T08:50:42.234Z,5.6000
2019-04-26T08:50:50.136Z,6.2000
2019-04-26T08:51:10.856Z,5.1000
2019-04-26T08:51:24.738Z,3.4000
2019-04-26T08:51:37.048Z,2.9000
2019-04-26T08:51:39.659Z,3.3000
2019-04-26T08:52:01.206Z,13.8000
2019-04-26T08:52:14.666Z,36.3000
2019-04-26T08:52:30.298Z,45.8000
2019-04-26T08:52:39.248Z,24.1000
2019-04-26T08:52:50.267Z,7.6000
2019-04-26T08:52:59.269Z,5.1000
2019-04-26T08:53:10.248Z,7.2000
2019-04-26T08:53:19.264Z,10.2000
2019-04-26T08:53:31.242Z,14.5000
2019-04-26T08:53:39.335Z,16.1000
2019-04-26T08:54:00.408Z,13.3000
2019-04-26T08:54:09.278Z,11.1000
2019-04-26T08:54:19.480Z,11.0000
2019-04-26T08:54:29.263Z,9.8000
2019-04-26T08:54:40.278Z,7.2000
2019-04-26T08:54:49.321Z,4.3000
2019-04-26T08:55:09.309Z,3.6000
2019-04-26T08:55:20.297Z,4.2000
2019-04-26T08:55:29.267Z,4.8000
2019-04-26T08:55:40.016Z,5.5000
2019-04-26T08:55:49.280Z,5.0000
2019-04-26T08:56:00.293Z,4.3000
2019-04-26T08:56:11.626Z,3.0000
2019-04-26T08:56:29.255Z,1.2000
2019-04-26T08:56:41.300Z,1.1000
2019-04-26T08:56:50.255Z,0.7000
2019-04-26T08:57:01.299Z,1.2000
2019-04-26T08:57:10.230Z,3.3000
2019-04-26T08:57:19.270Z,6.7000
2019-04-26T08:57:40.776Z,5.4000
2019-04-26T08:57:50.221Z,3.0000
2019-04-26T08:57:59.324Z,2.4000
2019-04-26T08:58:10.294Z,2.7000
2019-04-26T08:58:19.273Z,3.8000
2019-04-26T08:58:30.239Z,3.9000
2019-04-26T08:58:39.308Z,4.0000
2019-04-26T08:58:59.306Z,5.0000
2019-04-26T08:59:10.276Z,4.8000
2019-04-26T08:59:19.257Z,4.1000
2019-04-26T08:59:31.322Z,1.8000
2019-04-26T08:59:39.266Z,1.3000
2019-04-26T08:59:51.277Z,2.3000
2019-04-26T09:00:00.241Z,2.3000
2019-04-26T09:00:20.232Z,1.2000
2019-04-26T09:00:29.238Z,1.0000
2019-04-26T09:00:40.258Z,1.6000
2019-04-26T09:00:49.291Z,1.1000
2019-04-26T09:01:00.258Z,1.1000
2019-04-26T09:01:09.276Z,1.6000
2019-04-26T09:01:20.241Z,2.4000
2019-04-26T09:01:29.329Z,2.5000
2019-04-26T09:01:41.976Z,2.9000
2019-04-26T09:01:49.288Z,3.1000
2019-04-26T09:02:00.317Z,2.6000
2019-04-26T09:02:09.238Z,1.7000
2019-04-26T09:02:20.297Z,1.6000
2019-04-26T09:02:29.381Z,2.7000
2019-04-26T09:02:49.478Z,2.4000
2019-04-26T09:03:10.892Z,2.0000
2019-04-26T09:03:11.632Z,1.7000
2019-04-26T09:03:21.229Z,1.5000
2019-04-26T09:03:32.413Z,1.9000
2019-04-26T09:03:39.296Z,2.1000
2019-04-26T09:03:59.268Z,1.1000
2019-04-26T09:04:10.281Z,1.7000
2019-04-26T09:04:19.269Z,2.9000
2019-04-26T09:04:30.264Z,3.6000
2019-04-26T09:04:39.367Z,3.2000
2019-04-26T09:04:50.333Z,2.0000
2019-04-26T09:04:59.478Z,2.7000
2019-04-26T09:05:19.379Z,4.1000
2019-04-26T09:05:30.277Z,2.6000
2019-04-26T09:05:39.252Z,1.8000
2019-04-26T09:05:59.536Z,2.4000
2019-04-26T09:06:11.369Z,1.5000
2019-04-26T09:06:19.249Z,1.6000
2019-04-26T09:06:31.271Z,1.4000
2019-04-26T09:06:40.373Z,1.3000
2019-04-26T09:06:49.308Z,2.3000
2019-04-26T09:07:00.280Z,2.3000
2019-04-26T09:07:09.333Z,2.0000
2019-04-26T09:07:20.239Z,1.0000
2019-04-26T09:07:29.292Z,0.9000
2019-04-26T09:07:39.715Z,1.7000
2019-04-26T09:07:49.308Z,1.5000
2019-04-26T09:08:00.274Z,1.3000
2019-04-26T09:08:09.248Z,0.8000
2019-04-26T09:08:29.291Z,0.9000
2019-04-26T09:08:43.489Z,0.6000
2019-04-26T09:08:49.283Z,0.6000
2019-04-26T09:09:00.279Z,0.9000
2019-04-26T09:09:09.235Z,0.9000
2019-04-26T09:09:21.268Z,1.0000
2019-04-26T09:09:32.316Z,0.6000
2019-04-26T09:09:57.021Z,0.6000
2019-04-26T09:10:01.586Z,1.0000
2019-04-26T09:10:11.218Z,1.6000
2019-04-26T09:10:19.260Z,1.9000
2019-04-26T09:10:30.231Z,1.7000
2019-04-26T09:10:42.970Z,1.6000
2019-04-26T09:10:50.261Z,0.8000
2019-04-26T09:10:59.337Z,0.8000
2019-04-26T09:11:22.539Z,1.1000
2019-04-26T09:11:25.945Z,1.2000
2019-04-26T09:11:33.840Z,1.9000
2019-04-26T09:11:39.306Z,3.7000
2019-04-26T09:11:59.595Z,3.7000
2019-04-26T09:12:00.107Z,2.8000
2019-04-26T09:12:22.491Z,1.4000
2019-04-26T09:12:23.302Z,1.2000
2019-04-26T09:12:40.236Z,0.6000
2019-04-26T09:12:49.538Z,0.7000
2019-04-26T09:13:00.322Z,0.8000
2019-04-26T09:13:09.288Z,1.5000
2019-04-26T09:13:20.257Z,1.5000
2019-04-26T09:13:30.326Z,1.4000
2019-04-26T09:13:40.268Z,0.8000
2019-04-26T09:13:50.047Z,0.9000
2019-04-26T09:14:00.272Z,0.6000
2019-04-26T09:14:09.272Z,0.8000
2019-04-26T09:14:20.256Z,0.6000
2019-04-26T09:14:29.348Z,0.5000
2019-04-26T09:14:40.256Z,0.5000
2019-04-26T09:14:49.266Z,0.5000
2019-04-26T09:15:00.248Z,2.0000
2019-04-26T09:15:09.313Z,2.5000
2019-04-26T09:15:29.242Z,5.5000
2019-04-26T09:15:41.268Z,5.8000
2019-04-26T09:15:50.264Z,1.4000
2019-04-26T09:16:01.392Z,1.3000
2019-04-26T09:16:10.366Z,0.8000
2019-04-26T09:16:19.335Z,1.7000
2019-04-26T09:16:30.439Z,1.7000
2019-04-26T09:16:49.807Z,1.9000
2019-04-26T09:16:59.315Z,2.2000
2019-04-26T09:17:10.345Z,2.6000
2019-04-26T09:17:19.295Z,2.9000
2019-04-26T09:17:39.270Z,1.8000
2019-04-26T09:17:50.218Z,1.4000
2019-04-26T09:18:02.169Z,1.2000
2019-04-26T09:18:10.276Z,1.5000
2019-04-26T09:18:19.289Z,1.5000
2019-04-26T09:18:43.391Z,0.8000
2019-04-26T09:18:54.184Z,1.3000
2019-04-26T09:18:59.878Z,1.9000
2019-04-26T09:19:09.264Z,2.4000
2019-04-26T09:19:19.483Z,2.9000
2019-04-26T09:19:30.463Z,2.5000
2019-04-26T09:19:40.269Z,2.7000
2019-04-26T09:19:49.223Z,2.5000
2019-04-26T09:20:07.049Z,1.6000
2019-04-26T09:20:09.608Z,1.5000
2019-04-26T09:20:28.783Z,0.8000
2019-04-26T09:20:30.012Z,1.2000
2019-04-26T09:20:42.799Z,2.3000
2019-04-26T09:20:49.236Z,2.5000
2019-04-26T09:21:00.279Z,2.2000
2019-04-26T09:21:09.305Z,1.3000
2019-04-26T09:21:20.263Z,1.2000
2019-04-26T09:21:29.254Z,1.2000
2019-04-26T09:21:41.304Z,1.3000
2019-04-26T09:21:53.716Z,1.8000
2019-04-26T09:22:13.279Z,1.4000
2019-04-26T09:22:22.563Z,0.7000
2019-04-26T09:22:29.543Z,0.7000
2019-04-26T09:22:39.235Z,0.6000
2019-04-26T09:23:03.828Z,0.7000
2019-04-26T09:23:10.301Z,0.9000
2019-04-26T09:23:19.336Z,1.7000
2019-04-26T09:23:39.788Z,2.1000
2019-04-26T09:23:40.281Z,2.2000
2019-04-26T09:23:52.046Z,1.8000
2019-04-26T09:24:10.276Z,1.5000
2019-04-26T09:24:20.983Z,1.2000
2019-04-26T09:24:31.269Z,1.2000
2019-04-26T09:24:39.303Z,1.2000
2019-04-26T09:24:51.266Z,1.3000
2019-04-26T09:25:01.061Z,1.2000
2019-04-26T09:25:09.288Z,1.1000
2019-04-26T09:25:30.233Z,2.0000
2019-04-26T09:25:40.328Z,2.4000
2019-04-26T09:25:58.743Z,2.4000
2019-04-26T09:26:00.247Z,5.6000
2019-04-26T09:26:12.611Z,5.5000
2019-04-26T09:26:29.353Z,1.5000
2019-04-26T09:26:42.499Z,1.4000
2019-04-26T09:26:49.299Z,1.8000
2019-04-26T09:27:00.269Z,1.2000
2019-04-26T09:27:09.247Z,1.4000
2019-04-26T09:27:20.950Z,1.5000
2019-04-26T09:27:29.280Z,1.7000
2019-04-26T09:27:50.238Z,1.4000
2019-04-26T09:28:01.386Z,2.0000
2019-04-26T09:28:10.315Z,2.0000
2019-04-26T09:28:19.226Z,2.0000
2019-04-26T09:28:30.225Z,2.4000
2019-04-26T09:28:39.238Z,2.3000
2019-04-26T09:28:52.936Z,1.9000
2019-04-26T09:28:59.239Z,1.9000
2019-04-26T09:29:10.258Z,2.6000
2019-04-26T09:29:19.378Z,3.3000
2019-04-26T09:29:31.764Z,3.3000
2019-04-26T09:29:41.234Z,4.7000
2019-04-26T09:29:50.217Z,4.7000
2019-04-26T09:30:00.465Z,6.1000
2019-04-26T09:30:10.250Z,5.5000
2019-04-26T09:30:34.013Z,3.3000
2019-04-26T09:30:42.403Z,3.1000
2019-04-26T09:30:51.235Z,2.7000
2019-04-26T09:31:00.265Z,2.5000
2019-04-26T09:31:09.245Z,2.5000
2019-04-26T09:31:21.125Z,3.6000
2019-04-26T09:31:29.253Z,5.6000
2019-04-26T09:31:50.472Z,3.9000
2019-04-26T09:32:00.282Z,1.9000
2019-04-26T09:32:09.261Z,2.0000
2019-04-26T09:32:20.285Z,1.8000
2019-04-26T09:32:29.411Z,1.9000
2019-04-26T09:32:39.978Z,2.5000
2019-04-26T09:32:49.241Z,3.3000
2019-04-26T09:33:09.338Z,2.0000
2019-04-26T09:33:20.326Z,1.3000
2019-04-26T09:33:31.782Z,1.4000
2019-04-26T09:33:41.274Z,2.8000
2019-04-26T09:34:01.245Z,2.7000
2019-04-26T09:34:11.405Z,1.2000
2019-04-26T09:34:19.296Z,1.1000
2019-04-26T09:34:29.548Z,1.6000
2019-04-26T09:34:41.241Z,1.5000
2019-04-26T09:34:54.260Z,2.2000
2019-04-26T09:34:59.329Z,1.8000
2019-04-26T09:35:19.496Z,2.9000
2019-04-26T09:35:30.249Z,3.0000
2019-04-26T09:35:39.279Z,2.1000
2019-04-26T09:35:59.245Z,3.9000
2019-04-26T09:36:10.246Z,3.6000
2019-04-26T09:36:19.286Z,1.9000
2019-04-26T09:36:30.238Z,1.3000
2019-04-26T09:36:39.241Z,1.2000
2019-04-26T09:36:51.245Z,1.4000
2019-04-26T09:37:00.232Z,1.4000
2019-04-26T09:37:20.282Z,1.2000
2019-04-26T09:37:29.270Z,1.4000
2019-04-26T09:37:40.287Z,1.0000
2019-04-26T09:37:49.250Z,0.7000
2019-04-26T09:38:00.280Z,0.7000
2019-04-26T09:38:09.318Z,0.7000
2019-04-26T09:38:20.246Z,1.2000
2019-04-26T09:38:40.304Z,1.2000
2019-04-26T09:38:49.253Z,1.0000
2019-04-26T09:39:03.984Z,1.0000
2019-04-26T09:39:09.836Z,1.6000
2019-04-26T09:39:20.261Z,2.7000
2019-04-26T09:39:29.262Z,2.6000
2019-04-26T09:39:42.023Z,2.0000
2019-04-26T09:39:49.259Z,0.9000
2019-04-26T09:40:10.045Z,0.8000
2019-04-26T09:40:10.925Z,0.8000
2019-04-26T09:40:22.508Z,0.9000
2019-04-26T09:40:30.302Z,1.3000
2019-04-26T09:40:39.276Z,1.6000
2019-04-26T09:40:52.585Z,1.3000
2019-04-26T09:41:00.557Z,1.5000
2019-04-26T09:41:10.221Z,1.2000
2019-04-26T09:41:30.867Z,1.0000
2019-04-26T09:41:39.305Z,2.0000
2019-04-26T09:41:50.217Z,2.2000
2019-04-26T09:42:01.117Z,1.7000
2019-04-26T09:42:10.337Z,0.7000
2019-04-26T09:42:19.400Z,1.7000
2019-04-26T09:42:40.901Z,1.9000
2019-04-26T09:42:51.991Z,1.5000
2019-04-26T09:43:02.431Z,2.8000
2019-04-26T09:43:15.216Z,2.6000
2019-04-26T09:43:20.336Z,2.4000
2019-04-26T09:43:31.389Z,1.6000
2019-04-26T09:43:40.333Z,1.2000
2019-04-26T09:44:00.411Z,1.2000
2019-04-26T09:44:09.261Z,1.3000
2019-04-26T09:44:20.435Z,1.0000
2019-04-26T09:44:30.721Z,1.2000
2019-04-26T09:44:41.441Z,1.4000
2019-04-26T09:44:49.244Z,4.7000
2019-04-26T09:45:00.368Z,4.8000
2019-04-26T09:45:09.282Z,5.5000
2019-04-26T09:45:20.278Z,1.9000
2019-04-26T09:45:29.388Z,1.8000
2019-04-26T09:45:40.308Z,1.1000
2019-04-26T09:45:49.418Z,1.0000
2019-04-26T09:46:00.269Z,1.2000
2019-04-26T09:46:09.288Z,1.9000
2019-04-26T09:46:20.346Z,2.5000
2019-04-26T09:46:29.268Z,2.1000
2019-04-26T09:46:44.196Z,1.3000
2019-04-26T09:46:52.792Z,1.8000
2019-04-26T09:47:01.417Z,2.9000
2019-04-26T09:47:10.294Z,2.9000
2019-04-26T09:47:21.315Z,2.4000
2019-04-26T09:47:30.336Z,1.1000
2019-04-26T09:47:39.338Z,2.1000
2019-04-26T09:47:53.931Z,1.9000
2019-04-26T09:48:00.149Z,1.8000
2019-04-26T09:48:13.528Z,1.2000
2019-04-26T09:48:19.275Z,1.8000
2019-04-26T09:48:30.258Z,2.5000
2019-04-26T09:48:39.299Z,2.4000
2019-04-26T09:48:50.260Z,3.0000
2019-04-26T09:48:59.312Z,3.9000
2019-04-26T09:49:10.320Z,3.2000
2019-04-26T09:49:23.337Z,1.9000
2019-04-26T09:49:30.973Z,1.3000
2019-04-26T09:49:41.127Z,1.0000
2019-04-26T09:49:50.467Z,0.9000
2019-04-26T09:49:59.428Z,0.7000
2019-04-26T09:50:14.970Z,1.2000
2019-04-26T09:50:19.336Z,1.5000
2019-04-26T09:50:31.400Z,1.5000
2019-04-26T09:50:40.377Z,1.2000
2019-04-26T09:50:49.366Z,1.0000
2019-04-26T09:51:00.253Z,1.5000
2019-04-26T09:51:09.388Z,1.6000
2019-04-26T09:51:20.303Z,1.6000
2019-04-26T09:51:29.358Z,1.0000
2019-04-26T09:51:40.513Z,1.9000
2019-04-26T09:51:49.552Z,3.6000
2019-04-26T09:52:00.320Z,3.2000
2019-04-26T09:52:09.426Z,2.8000
2019-04-26T09:52:20.378Z,4.8000
2019-04-26T09:52:29.393Z,5.3000
2019-04-26T09:52:40.298Z,5.4000
2019-04-26T09:52:49.266Z,2.3000
2019-04-26T09:53:00.248Z,2.6000
2019-04-26T09:53:09.330Z,2.4000
2019-04-26T09:53:20.261Z,2.2000
2019-04-26T09:53:29.489Z,1.4000
2019-04-26T09:53:43.282Z,1.9000
2019-04-26T09:53:50.030Z,1.6000
2019-04-26T09:54:01.409Z,1.2000
2019-04-26T09:54:11.276Z,2.9000
2019-04-26T09:54:19.428Z,3.1000
2019-04-26T09:54:30.396Z,3.1000
2019-04-26T09:54:39.959Z,3.6000
2019-04-26T09:54:50.350Z,1.0000
2019-04-26T09:54:59.571Z,1.4000
2019-04-26T09:55:10.969Z,1.1000
2019-04-26T09:55:19.329Z,1.5000
2019-04-26T09:55:35.507Z,1.8000
2019-04-26T09:55:39.376Z,2.7000
2019-04-26T09:55:49.957Z,2.3000
2019-04-26T09:55:59.449Z,1.7000
2019-04-26T09:56:10.248Z,1.1000
2019-04-26T09:56:19.272Z,1.1000
2019-04-26T09:56:30.485Z,2.4000
2019-04-26T09:56:39.301Z,2.6000
2019-04-26T09:56:51.278Z,1.7000
2019-04-26T09:57:00.408Z,1.8000
2019-04-26T09:57:11.309Z,1.3000
2019-04-26T09:57:20.340Z,1.7000
2019-04-26T09:57:29.456Z,2.4000
2019-04-26T09:57:40.488Z,2.7000
2019-04-26T09:57:49.248Z,2.2000
2019-04-26T09:58:00.522Z,1.5000
2019-04-26T09:58:09.309Z,2.7000
2019-04-26T09:58:20.354Z,3.4000
2019-04-26T09:58:30.689Z,5.0000
2019-04-26T09:58:40.277Z,3.6000
2019-04-26T09:58:49.231Z,4.4000
2019-04-26T09:59:01.572Z,2.3000
2019-04-26T09:59:09.430Z,3.2000
2019-04-26T09:59:20.970Z,2.1000
2019-04-26T09:59:29.315Z,3.7000
2019-04-26T09:59:41.217Z,2.7000
2019-04-26T09:59:49.364Z,3.0000
2019-04-26T10:00:01.314Z,1.3000
2019-04-26T10:00:10.436Z,1.4000
2019-04-26T10:00:21.286Z,0.9000
2019-04-26T10:00:30.314Z,1.7000
2019-04-26T10:00:39.377Z,2.0000
2019-04-26T10:00:50.263Z,7.0000
2019-04-26T10:00:59.392Z,7.5000
2019-04-26T10:01:10.268Z,7.5000
2019-04-26T10:01:19.752Z,3.6000
2019-04-26T10:01:30.318Z,2.6000
2019-04-26T10:01:39.282Z,2.6000
2019-04-26T10:01:50.340Z,2.1000
2019-04-26T10:01:59.420Z,1.9000
2019-04-26T10:02:10.281Z,2.3000
2019-04-26T10:02:19.959Z,2.9000
2019-04-26T10:02:33.852Z,4.3000
2019-04-26T10:02:39.479Z,4.4000
2019-04-26T10:02:50.729Z,3.2000
2019-04-26T10:02:59.969Z,2.1000
2019-04-26T10:03:10.800Z,1.3000
2019-04-26T10:03:20.127Z,2.2000
2019-04-26T10:03:34.299Z,1.8000
2019-04-26T10:03:40.006Z,3.2000
2019-04-26T10:03:50.044Z,6.0000
2019-04-26T10:04:00.236Z,5.9000
2019-04-26T10:04:09.247Z,6.4000
2019-04-26T10:04:20.979Z,2.8000
2019-04-26T10:04:32.124Z,2.3000
2019-04-26T10:04:39.236Z,1.8000
2019-04-26T10:04:49.333Z,1.0000
2019-04-26T10:05:00.278Z,1.0000
2019-04-26T10:05:11.970Z,1.0000
2019-04-26T10:05:22.154Z,1.3000
2019-04-26T10:05:29.358Z,1.3000
2019-04-26T10:05:40.278Z,1.8000
2019-04-26T10:05:52.111Z,1.3000
2019-04-26T10:06:00.319Z,1.3000
2019-04-26T10:06:09.364Z,1.2000
2019-04-26T10:06:20.252Z,1.3000
2019-04-26T10:06:29.691Z,1.3000
2019-04-26T10:06:41.357Z,1.7000
2019-04-26T10:06:49.357Z,1.8000
2019-04-26T10:07:03.248Z,2.0000
2019-04-26T10:07:10.251Z,1.2000
2019-04-26T10:07:21.264Z,1.8000
2019-04-26T10:07:33.422Z,1.7000
2019-04-26T10:07:39.268Z,2.0000
2019-04-26T10:07:50.297Z,1.3000
2019-04-26T10:07:59.270Z,2.4000
2019-04-26T10:08:12.771Z,1.9000
2019-04-26T10:08:19.279Z,2.1000
2019-04-26T10:08:30.269Z,1.1000
2019-04-26T10:08:39.276Z,1.3000
2019-04-26T10:08:52.418Z,2.2000
2019-04-26T10:08:59.308Z,2.8000
2019-04-26T10:09:10.253Z,3.1000
2019-04-26T10:09:21.244Z,2.6000
2019-04-26T10:09:30.986Z,2.3000
2019-04-26T10:09:39.287Z,2.1000
2019-04-26T10:09:51.711Z,1.2000
2019-04-26T10:10:00.946Z,2.2000
2019-04-26T10:10:22.114Z,2.0000
2019-04-26T10:10:23.166Z,2.1000
2019-04-26T10:10:31.029Z,1.6000
2019-04-26T10:10:39.268Z,1.8000
2019-04-26T10:10:51.775Z,1.8000
2019-04-26T10:10:59.297Z,1.7000
2019-04-26T10:11:11.256Z,3.9000
2019-04-26T10:11:20.274Z,3.9000
2019-04-26T10:11:29.371Z,3.7000
2019-04-26T10:11:43.591Z,1.2000
2019-04-26T10:11:49.338Z,1.1000
2019-04-26T10:12:00.493Z,1.2000
2019-04-26T10:12:09.364Z,1.2000
2019-04-26T10:12:20.286Z,1.4000
2019-04-26T10:12:30.308Z,1.7000
2019-04-26T10:12:40.279Z,1.8000
2019-04-26T10:12:53.258Z,1.9000
2019-04-26T10:13:00.648Z,2.6000
2019-04-26T10:13:09.308Z,3.6000
2019-04-26T10:13:20.277Z,4.0000
2019-04-26T10:13:29.271Z,3.2000
2019-04-26T10:13:40.378Z,1.7000
2019-04-26T10:13:50.229Z,1.3000
2019-04-26T10:14:01.057Z,1.6000
2019-04-26T10:14:09.318Z,1.5000
2019-04-26T10:14:20.414Z,2.1000
2019-04-26T10:14:29.972Z,1.8000
2019-04-26T10:14:39.119Z,1.9000
2019-04-26T10:14:50.977Z,1.9000
2019-04-26T10:15:01.352Z,2.0000
2019-04-26T10:15:10.350Z,1.5000
2019-04-26T10:15:22.499Z,0.8000
2019-04-26T10:15:29.197Z,1.2000
2019-04-26T10:15:39.287Z,1.2000
2019-04-26T10:15:50.296Z,1.7000
2019-04-26T10:16:02.502Z,1.4000
2019-04-26T10:16:10.311Z,1.7000
2019-04-26T10:16:19.271Z,1.4000
2019-04-26T10:16:33.511Z,1.1000
2019-04-26T10:16:42.188Z,1.3000
2019-04-26T10:16:50.313Z,1.3000
2019-04-26T10:16:59.391Z,1.3000
2019-04-26T10:17:11.458Z,0.9000
2019-04-26T10:17:19.331Z,0.9000
2019-04-26T10:17:30.366Z,1.3000
2019-04-26T10:17:39.353Z,1.3000
2019-04-26T10:17:51.154Z,1.9000
2019-04-26T10:18:00.139Z,1.5000
2019-04-26T10:18:11.344Z,1.4000
2019-04-26T10:18:23.847Z,0.7000
2019-04-26T10:18:32.079Z,0.7000
2019-04-26T10:18:40.344Z,0.9000
2019-04-26T10:18:49.416Z,1.4000
2019-04-26T10:19:00.335Z,1.7000
2019-04-26T10:19:09.989Z,2.8000
2019-04-26T10:19:20.355Z,2.7000
2019-04-26T10:19:31.631Z,2.7000
2019-04-26T10:19:40.419Z,2.0000
2019-04-26T10:19:49.328Z,2.5000
2019-04-26T10:20:00.331Z,2.6000
2019-04-26T10:20:10.161Z,2.7000
2019-04-26T10:20:20.341Z,4.5000
2019-04-26T10:20:29.341Z,6.3000
2019-04-26T10:20:40.319Z,6.9000
2019-04-26T10:20:49.291Z,7.0000
2019-04-26T10:21:00.368Z,3.0000
2019-04-26T10:21:09.268Z,2.3000
2019-04-26T10:21:20.421Z,2.0000
2019-04-26T10:21:29.258Z,2.2000
2019-04-26T10:21:41.270Z,1.6000
2019-04-26T10:21:50.236Z,1.4000
2019-04-26T10:22:01.729Z,1.1000
2019-04-26T10:22:10.256Z,1.2000
2019-04-26T10:22:19.291Z,1.1000
2019-04-26T10:22:30.311Z,1.1000
2019-04-26T10:22:39.319Z,0.8000
2019-04-26T10:22:50.438Z,1.8000
2019-04-26T10:23:00.268Z,1.8000
2019-04-26T10:23:10.238Z,1.9000
2019-04-26T10:23:19.423Z,1.7000
2019-04-26T10:23:30.301Z,0.9000
2019-04-26T10:23:39.282Z,1.0000
2019-04-26T10:23:50.259Z,1.2000
2019-04-26T10:23:59.342Z,1.2000
2019-04-26T10:24:10.380Z,1.5000
2019-04-26T10:24:19.315Z,1.5000
2019-04-26T10:24:30.411Z,1.9000
2019-04-26T10:24:39.291Z,3.4000
2019-04-26T10:24:50.298Z,4.9000
2019-04-26T10:25:02.652Z,6.5000
2019-04-26T10:25:16.714Z,5.8000
2019-04-26T10:25:19.341Z,4.4000
2019-04-26T10:25:29.287Z,3.2000
2019-04-26T10:25:40.601Z,4.4000
2019-04-26T10:25:51.890Z,5.6000
2019-04-26T10:25:59.366Z,5.3000
2019-04-26T10:26:09.329Z,4.5000
2019-04-26T10:26:23.155Z,3.4000
2019-04-26T10:26:29.891Z,3.6000
2019-04-26T10:26:41.241Z,3.5000
2019-04-26T10:26:50.351Z,4.7000
2019-04-26T10:27:03.362Z,4.6000
2019-04-26T10:27:09.289Z,4.8000
2019-04-26T10:27:20.256Z,3.4000
2019-04-26T10:27:29.322Z,3.9000
2019-04-26T10:27:40.902Z,3.6000
2019-04-26T10:27:49.328Z,5.0000
2019-04-26T10:27:59.980Z,5.6000
2019-04-26T10:28:11.860Z,5.0000
2019-04-26T10:28:20.441Z,2.9000
2019-04-26T10:28:29.276Z,2.3000
2019-04-26T10:28:41.538Z,1.4000
2019-04-26T10:28:50.633Z,1.3000
2019-04-26T10:29:01.984Z,7.8000
2019-04-26T10:29:10.252Z,8.5000
2019-04-26T10:29:21.638Z,8.4000
2019-04-26T10:29:30.036Z,3.3000
2019-04-26T10:29:39.360Z,2.8000
2019-04-26T10:29:50.317Z,2.6000
2019-04-26T10:30:07.997Z,2.3000
2019-04-26T10:30:10.261Z,1.8000
2019-04-26T10:30:19.518Z,1.7000
2019-04-26T10:30:30.378Z,0.9000
2019-04-26T10:30:42.387Z,1.3000
2019-04-26T10:30:51.039Z,1.5000
2019-04-26T10:31:02.362Z,1.2000
2019-04-26T10:31:13.498Z,1.0000
2019-04-26T10:31:19.254Z,0.9000
2019-04-26T10:31:30.521Z,1.4000
2019-04-26T10:31:39.312Z,1.6000
2019-04-26T10:31:51.817Z,1.7000
2019-04-26T10:31:59.291Z,3.9000
2019-04-26T10:32:11.380Z,3.5000
2019-04-26T10:32:21.779Z,3.4000
2019-04-26T10:32:31.338Z,1.1000
2019-04-26T10:32:40.245Z,0.9000
2019-04-26T10:32:51.329Z,1.2000
2019-04-26T10:33:02.219Z,0.8000
2019-04-26T10:33:09.352Z,0.9000
2019-04-26T10:33:20.457Z,1.1000
2019-04-26T10:33:32.701Z,1.1000
2019-04-26T10:33:40.394Z,1.6000
2019-04-26T10:33:49.279Z,1.6000
2019-04-26T10:34:00.258Z,1.8000
2019-04-26T10:34:11.909Z,1.8000
2019-04-26T10:34:20.248Z,2.7000
2019-04-26T10:34:29.256Z,3.2000
2019-04-26T10:34:42.654Z,2.8000
2019-04-26T10:34:49.243Z,4.2000
2019-04-26T10:35:00.252Z,4.4000
2019-04-26T10:35:09.278Z,4.2000
2019-04-26T10:35:21.621Z,2.7000
2019-04-26T10:35:29.286Z,2.0000
2019-04-26T10:35:41.247Z,1.3000
2019-04-26T10:35:52.549Z,2.5000
2019-04-26T10:36:01.359Z,3.1000
2019-04-26T10:36:10.328Z,4.1000
2019-04-26T10:36:19.242Z,5.9000
2019-04-26T10:36:31.431Z,5.0000
2019-04-26T10:36:39.397Z,5.1000
2019-04-26T10:36:50.386Z,2.2000
2019-04-26T10:37:06.181Z,1.1000
2019-04-26T10:37:10.253Z,1.5000
2019-04-26T10:37:19.264Z,1.8000
2019-04-26T10:37:39.175Z,2.3000
2019-04-26T10:37:44.004Z,2.4000
2019-04-26T10:37:52.515Z,2.0000
2019-04-26T10:37:59.249Z,3.7000
2019-04-26T10:38:10.310Z,3.1000
2019-04-26T10:38:23.286Z,3.3000
2019-04-26T10:38:30.240Z,0.9000
2019-04-26T10:38:39.305Z,1.1000
2019-04-26T10:38:50.256Z,0.6000
2019-04-26T10:38:59.722Z,0.6000
2019-04-26T10:39:11.268Z,0.9000
2019-04-26T10:39:19.285Z,1.7000
2019-04-26T10:39:32.511Z,1.8000
2019-04-26T10:39:40.378Z,1.4000
2019-04-26T10:39:51.235Z,0.9000
2019-04-26T10:40:00.277Z,0.6000
2019-04-26T10:40:09.226Z,0.8000
2019-04-26T10:40:19.518Z,0.8000
2019-04-26T10:40:35.269Z,0.7000
2019-04-26T10:40:40.251Z,0.7000
2019-04-26T10:40:49.376Z,0.7000
2019-04-26T10:41:00.301Z,1.5000